createdAt,value
2024-01-20T00:01:17.914Z,-2.46
2024-01-20T00:03:47.360Z,-2.49
2024-01-20T00:06:17.243Z,-2.50
2024-01-20T00:08:48.335Z,-2.53
2024-01-20T00:11:18.040Z,-2.54
2024-01-20T00:13:47.542Z,-2.56
2024-01-20T00:16:17.198Z,-2.57
2024-01-20T00:18:46.938Z,-2.61
2024-01-20T00:21:16.789Z,-2.61
2024-01-20T00:23:46.248Z,-2.64
2024-01-20T00:26:16.387Z,-2.65
2024-01-20T00:28:46.007Z,-2.68
2024-01-20T00:31:16.502Z,-2.67
2024-01-20T00:33:46.165Z,-2.69
2024-01-20T00:36:15.797Z,-2.68
2024-01-20T00:38:45.292Z,-2.69
2024-01-20T00:41:15.373Z,-2.71
2024-01-20T00:43:45.529Z,-2.69
2024-01-20T00:46:15.033Z,-2.71
2024-01-20T00:48:44.550Z,-2.74
2024-01-20T00:51:14.028Z,-2.74
2024-01-20T00:53:43.486Z,-2.76
2024-01-20T00:56:13.010Z,-2.78
2024-01-20T00:58:42.484Z,-2.79
2024-01-20T01:01:12.851Z,-2.80
2024-01-20T01:03:44.277Z,-2.81
2024-01-20T01:06:13.790Z,-2.82
2024-01-20T01:08:43.491Z,-2.85
2024-01-20T01:11:14.064Z,-2.89
2024-01-20T01:13:43.734Z,-2.91
2024-01-20T01:16:14.493Z,-2.93
2024-01-20T01:18:43.897Z,-2.94
2024-01-20T01:21:13.569Z,-2.99
2024-01-20T01:23:43.257Z,-2.97
2024-01-20T01:26:13.275Z,-3.01
2024-01-20T01:28:42.751Z,-3.02
2024-01-20T01:31:12.472Z,-3.05
2024-01-20T01:33:41.989Z,-3.09
2024-01-20T01:36:12.763Z,-3.06
2024-01-20T01:38:42.246Z,-3.08
2024-01-20T01:41:12.452Z,-3.09
2024-01-20T01:43:42.217Z,-3.12
2024-01-20T01:46:11.704Z,-3.14
2024-01-20T01:48:41.599Z,-3.16
2024-01-20T01:51:13.814Z,-3.15
2024-01-20T01:53:43.361Z,-3.18
2024-01-20T01:56:15.646Z,-3.17
2024-01-20T01:58:45.653Z,-3.16
2024-01-20T02:01:15.768Z,-3.16
2024-01-20T02:03:45.326Z,-3.19
2024-01-20T02:06:15.025Z,-3.18
2024-01-20T02:08:44.484Z,-3.17
2024-01-20T02:11:14.787Z,-3.20
2024-01-20T02:13:44.631Z,-3.18
2024-01-20T02:16:14.068Z,-3.19
2024-01-20T02:18:43.596Z,-3.22
2024-01-20T02:21:13.423Z,-3.23
2024-01-20T02:23:45.479Z,-3.22
2024-01-20T02:26:14.949Z,-3.22
2024-01-20T02:28:44.383Z,-3.24
2024-01-20T02:31:14.287Z,-3.25
2024-01-20T02:33:43.833Z,-3.26
2024-01-20T02:36:13.649Z,-3.27
2024-01-20T02:38:43.129Z,-3.30
2024-01-20T02:41:13.254Z,-3.33
2024-01-20T02:43:42.653Z,-3.31
2024-01-20T02:46:12.137Z,-3.34
2024-01-20T02:48:41.626Z,-3.34
2024-01-20T02:51:11.504Z,-3.36
2024-01-20T02:53:40.946Z,-3.36
2024-01-20T02:56:10.531Z,-3.36
2024-01-20T02:58:39.988Z,-3.36
2024-01-20T03:01:09.845Z,-3.35
2024-01-20T03:03:39.443Z,-3.34
2024-01-20T03:06:09.731Z,-3.34
2024-01-20T03:08:39.216Z,-3.34
2024-01-20T03:11:08.671Z,-3.35
2024-01-20T03:13:38.141Z,-3.33
2024-01-20T03:16:09.621Z,-3.37
2024-01-20T03:18:39.158Z,-3.36
2024-01-20T03:21:09.504Z,-3.39
2024-01-20T03:23:38.979Z,-3.37
2024-01-20T03:26:09.565Z,-3.40
2024-01-20T03:28:42.375Z,-3.40
2024-01-20T03:31:11.962Z,-3.39
2024-01-20T03:33:41.444Z,-3.41
2024-01-20T03:36:13.029Z,-3.41
2024-01-20T03:38:42.433Z,-3.42
2024-01-20T03:41:11.848Z,-3.42
2024-01-20T03:43:41.347Z,-3.46
2024-01-20T03:46:10.785Z,-3.45
2024-01-20T03:48:40.896Z,-3.44
2024-01-20T03:51:11.810Z,-3.45
2024-01-20T03:53:41.249Z,-3.45
2024-01-20T03:56:10.793Z,-3.43
2024-01-20T03:58:40.218Z,-3.48
2024-01-20T04:01:09.740Z,-3.45
2024-01-20T04:03:39.274Z,-3.47
2024-01-20T04:06:09.334Z,-3.44
2024-01-20T04:08:38.798Z,-3.45
2024-01-20T04:11:08.577Z,-3.46
2024-01-20T04:13:38.042Z,-3.44
2024-01-20T04:16:07.595Z,-3.44
2024-01-20T04:18:37.131Z,-3.43
2024-01-20T04:21:07.144Z,-3.42
2024-01-20T04:23:36.716Z,-3.42
2024-01-20T04:26:06.288Z,-3.45
2024-01-20T04:28:35.713Z,-3.43
2024-01-20T04:31:05.360Z,-3.42
2024-01-20T04:33:36.351Z,-3.46
2024-01-20T04:36:06.619Z,-3.45
2024-01-20T04:38:36.054Z,-3.46
2024-01-20T04:41:05.476Z,-3.45
2024-01-20T04:43:35.074Z,-3.45
2024-01-20T04:46:04.840Z,-3.47
2024-01-20T04:48:34.425Z,-3.46
2024-01-20T04:51:04.373Z,-3.49
2024-01-20T04:53:35.755Z,-3.46
2024-01-20T04:56:06.578Z,-3.47
2024-01-20T04:58:36.038Z,-3.46
2024-01-20T05:01:07.056Z,-3.46
2024-01-20T05:03:36.528Z,-3.47
2024-01-20T05:06:08.303Z,-3.46
2024-01-20T05:08:38.108Z,-3.47
2024-01-20T05:11:09.074Z,-3.48
2024-01-20T05:13:38.564Z,-3.49
2024-01-20T05:16:08.029Z,-3.47
2024-01-20T05:18:37.545Z,-3.48
2024-01-20T05:21:08.020Z,-3.48
2024-01-20T05:23:38.181Z,-3.46
2024-01-20T05:26:07.618Z,-3.49
2024-01-20T05:28:37.055Z,-3.49
2024-01-20T05:31:06.693Z,-3.49
2024-01-20T05:33:36.275Z,-3.50
2024-01-20T05:36:06.045Z,-3.50
2024-01-20T05:38:35.505Z,-3.47
2024-01-20T05:41:04.959Z,-3.46
2024-01-20T05:43:34.353Z,-3.47
2024-01-20T05:46:08.308Z,-3.45
2024-01-20T05:48:38.294Z,-3.43
2024-01-20T05:51:08.346Z,-3.42
2024-01-20T05:53:37.877Z,-3.40
2024-01-20T05:56:07.266Z,-3.40
2024-01-20T05:58:36.733Z,-3.42
2024-01-20T06:01:06.490Z,-3.40
2024-01-20T06:03:36.071Z,-3.40
2024-01-20T06:06:07.972Z,-3.40
2024-01-20T06:08:38.638Z,-3.40
2024-01-20T06:11:08.444Z,-3.38
2024-01-20T06:13:38.520Z,-3.40
2024-01-20T06:16:08.865Z,-3.41
2024-01-20T06:18:38.333Z,-3.45
2024-01-20T06:21:08.142Z,-3.42
2024-01-20T06:23:38.416Z,-3.43
2024-01-20T06:26:07.931Z,-3.42
2024-01-20T06:28:37.372Z,-3.43
2024-01-20T06:31:07.068Z,-3.41
2024-01-20T06:33:36.791Z,-3.40
2024-01-20T06:36:06.943Z,-3.38
2024-01-20T06:38:36.433Z,-3.39
2024-01-20T06:41:05.897Z,-3.42
2024-01-20T06:43:35.298Z,-3.41
2024-01-20T06:46:04.810Z,-3.44
2024-01-20T06:48:35.528Z,-3.40
2024-01-20T06:51:06.150Z,-3.40
2024-01-20T06:53:35.627Z,-3.44
2024-01-20T06:56:05.524Z,-3.39
2024-01-20T06:58:36.174Z,-3.40
2024-01-20T07:01:06.831Z,-3.40
2024-01-20T07:03:36.408Z,-3.39
2024-01-20T07:06:08.216Z,-3.36
2024-01-20T07:08:37.817Z,-3.34
2024-01-20T07:11:10.978Z,-3.35
2024-01-20T07:13:40.480Z,-3.32
2024-01-20T07:16:14.869Z,-3.34
2024-01-20T07:18:44.383Z,-3.31
2024-01-20T07:21:14.091Z,-3.31
2024-01-20T07:23:43.621Z,-3.33
2024-01-20T07:26:13.049Z,-3.32
2024-01-20T07:28:42.472Z,-3.32
2024-01-20T07:31:12.117Z,-3.31
2024-01-20T07:33:42.608Z,-3.31
2024-01-20T07:36:12.457Z,-3.27
2024-01-20T07:38:41.979Z,-3.27
2024-01-20T07:41:11.542Z,-3.24
2024-01-20T07:43:41.113Z,-3.19
2024-01-20T07:46:11.783Z,-3.14
2024-01-20T07:48:41.810Z,-3.08
2024-01-20T07:51:11.494Z,-3.05
2024-01-20T07:53:40.991Z,-3.02
2024-01-20T07:56:12.381Z,-2.95
2024-01-20T07:58:41.961Z,-2.90
2024-01-20T08:01:11.510Z,-2.88
2024-01-20T08:03:41.010Z,-2.78
2024-01-20T08:06:10.495Z,-2.71
2024-01-20T08:08:39.998Z,-2.67
2024-01-20T08:11:09.568Z,-2.60
2024-01-20T08:13:39.037Z,-2.54
2024-01-20T08:16:09.925Z,-2.47
2024-01-20T08:18:39.479Z,-2.42
2024-01-20T08:21:09.730Z,-2.33
2024-01-20T08:23:39.305Z,-2.27
2024-01-20T08:26:08.773Z,-2.23
2024-01-20T08:28:38.855Z,-2.14
2024-01-20T08:31:09.455Z,-2.08
2024-01-20T08:33:47.261Z,-1.99
2024-01-20T08:36:16.838Z,-1.92
2024-01-20T08:38:46.290Z,-1.94
2024-01-20T08:41:15.761Z,-1.92
2024-01-20T08:43:46.450Z,-1.93
2024-01-20T08:46:16.083Z,-1.92
2024-01-20T08:48:45.647Z,-1.90
2024-01-20T08:51:15.562Z,-1.86
2024-01-20T08:53:44.993Z,-1.85
2024-01-20T08:56:14.412Z,-1.81
2024-01-20T08:58:43.874Z,-1.79
2024-01-20T09:01:13.766Z,-1.73
2024-01-20T09:03:43.249Z,-1.67
2024-01-20T09:06:16.770Z,-1.64
2024-01-20T09:08:46.279Z,-1.61
2024-01-20T09:11:15.785Z,-1.55
2024-01-20T09:13:48.943Z,-1.52
2024-01-20T09:16:19.315Z,-1.51
2024-01-20T09:18:49.061Z,-1.52
2024-01-20T09:21:18.863Z,-1.48
2024-01-20T09:23:48.436Z,-1.45
2024-01-20T09:26:17.835Z,-1.47
2024-01-20T09:28:47.283Z,-1.40
2024-01-20T09:31:17.268Z,-1.38
2024-01-20T09:33:48.235Z,-1.34
2024-01-20T09:36:17.783Z,-1.30
2024-01-20T09:38:47.195Z,-1.27
2024-01-20T09:41:16.928Z,-1.21
2024-01-20T09:43:46.920Z,-1.11
2024-01-20T09:46:17.636Z,-1.02
2024-01-20T09:48:47.668Z,-0.94
2024-01-20T09:51:18.359Z,-0.86
2024-01-20T09:53:49.506Z,-0.77
2024-01-20T09:56:19.055Z,-0.71
2024-01-20T09:58:50.837Z,-0.64
2024-01-20T10:01:21.417Z,-0.60
2024-01-20T10:03:53.387Z,-0.62
2024-01-20T10:06:24.362Z,-0.58
2024-01-20T10:08:53.840Z,-0.57
2024-01-20T10:11:23.784Z,-0.55
2024-01-20T10:13:53.256Z,-0.49
2024-01-20T10:16:23.115Z,-0.38
2024-01-20T10:18:52.573Z,-0.31
2024-01-20T10:21:23.339Z,-0.30
2024-01-20T10:23:53.009Z,-0.22
2024-01-20T10:26:24.591Z,-0.15
2024-01-20T10:28:56.946Z,-0.16
2024-01-20T10:31:26.532Z,-0.05
2024-01-20T10:33:56.151Z,-0.06
2024-01-20T10:36:26.790Z,-0.04
2024-01-20T10:38:58.421Z,-0.04
2024-01-20T10:41:27.830Z,0.03
2024-01-20T10:44:07.377Z,0.04
2024-01-20T10:46:46.400Z,0.13
2024-01-20T10:49:22.326Z,0.19
2024-01-20T10:51:53.752Z,0.23
2024-01-20T10:54:24.788Z,0.27
2024-01-20T10:56:54.308Z,0.27
2024-01-20T10:59:31.743Z,0.26
2024-01-20T11:02:01.693Z,0.22
2024-01-20T11:04:37.241Z,0.18
2024-01-20T11:07:10.076Z,0.21
2024-01-20T11:09:40.685Z,0.24
2024-01-20T11:12:10.342Z,0.32
2024-01-20T11:14:40.236Z,0.41
2024-01-20T11:17:13.823Z,0.51
2024-01-20T11:19:43.708Z,0.58
2024-01-20T11:22:32.329Z,0.66
2024-01-20T11:25:07.517Z,0.79
2024-01-20T11:27:50.827Z,0.81
2024-01-20T11:30:30.691Z,0.94
2024-01-20T11:33:00.506Z,0.95
2024-01-20T11:35:30.247Z,0.96
2024-01-20T11:38:01.011Z,1.01
2024-01-20T11:40:30.736Z,1.09
2024-01-20T11:43:12.427Z,1.19
2024-01-20T11:45:43.151Z,1.26
2024-01-20T11:48:15.179Z,1.23
2024-01-20T11:50:45.302Z,1.29
2024-01-20T11:53:15.789Z,1.29
2024-01-20T11:55:55.703Z,1.25
2024-01-20T11:58:25.388Z,1.32
2024-01-20T12:00:57.001Z,1.29
2024-01-20T12:03:28.726Z,1.38
2024-01-20T12:05:58.531Z,1.45
2024-01-20T12:08:28.584Z,1.42
2024-01-20T12:10:58.354Z,1.38
2024-01-20T12:13:34.101Z,1.29
2024-01-20T12:16:04.671Z,1.28
2024-01-20T12:18:34.635Z,1.26
2024-01-20T12:21:04.297Z,1.16
2024-01-20T12:23:33.822Z,1.15
2024-01-20T12:26:03.227Z,1.11
2024-01-20T12:28:33.690Z,1.07
2024-01-20T12:31:03.913Z,1.10
2024-01-20T12:33:33.376Z,1.12
2024-01-20T12:36:03.398Z,1.20
2024-01-20T12:38:32.875Z,1.20
2024-01-20T12:41:02.301Z,1.18
2024-01-20T12:43:32.750Z,1.16
2024-01-20T12:46:02.438Z,1.14
2024-01-20T12:48:31.932Z,1.10
2024-01-20T12:51:03.215Z,1.11
2024-01-20T12:53:34.442Z,1.07
2024-01-20T12:56:03.873Z,1.03
2024-01-20T12:58:33.270Z,1.02
2024-01-20T13:01:03.998Z,1.08
2024-01-20T13:03:33.536Z,1.13
2024-01-20T13:06:03.504Z,1.21
2024-01-20T13:08:33.081Z,1.27
2024-01-20T13:11:02.778Z,1.35
2024-01-20T13:13:32.328Z,1.39
2024-01-20T13:16:01.929Z,1.44
2024-01-20T13:18:32.422Z,1.53
2024-01-20T13:21:02.596Z,1.52
2024-01-20T13:23:32.095Z,1.57
2024-01-20T13:26:02.960Z,1.60
2024-01-20T13:28:34.530Z,1.63
2024-01-20T13:31:04.207Z,1.69
2024-01-20T13:33:33.839Z,1.72
2024-01-20T13:36:03.352Z,1.76
2024-01-20T13:38:32.861Z,1.76
2024-01-20T13:41:02.530Z,1.74
2024-01-20T13:43:31.998Z,1.79
2024-01-20T13:46:01.897Z,1.79
2024-01-20T13:48:31.531Z,1.83
2024-01-20T13:51:01.507Z,1.86
2024-01-20T13:53:31.658Z,1.87
2024-01-20T13:56:01.180Z,1.86
2024-01-20T13:58:30.709Z,1.81
2024-01-20T14:01:04.257Z,1.75
2024-01-20T14:03:34.564Z,1.75
2024-01-20T14:06:04.312Z,1.66
2024-01-20T14:08:34.015Z,1.62
2024-01-20T14:11:03.723Z,1.63
2024-01-20T14:13:33.137Z,1.57
2024-01-20T14:16:06.217Z,1.54
2024-01-20T14:18:35.799Z,1.57
2024-01-20T14:21:05.630Z,1.56
2024-01-20T14:23:35.156Z,1.57
2024-01-20T14:26:04.633Z,1.58
2024-01-20T14:28:34.110Z,1.54
2024-01-20T14:31:03.732Z,1.49
2024-01-20T14:33:33.321Z,1.43
2024-01-20T14:36:02.917Z,1.34
2024-01-20T14:38:32.348Z,1.27
2024-01-20T14:41:01.848Z,1.19
2024-01-20T14:43:31.321Z,1.10
2024-01-20T14:46:00.703Z,1.03
2024-01-20T14:48:30.332Z,0.94
2024-01-20T14:50:59.935Z,0.89
2024-01-20T14:53:29.377Z,0.82
2024-01-20T14:55:58.844Z,0.78
2024-01-20T14:58:28.539Z,0.70
2024-01-20T15:00:58.426Z,0.74
2024-01-20T15:03:28.031Z,0.65
2024-01-20T15:05:57.640Z,0.64
2024-01-20T15:08:27.134Z,0.58
2024-01-20T15:10:56.836Z,0.50
2024-01-20T15:13:26.416Z,0.48
2024-01-20T15:15:56.350Z,0.38
2024-01-20T15:18:25.951Z,0.37
2024-01-20T15:20:55.571Z,0.34
2024-01-20T15:23:25.109Z,0.33
2024-01-20T15:25:55.313Z,0.29
2024-01-20T15:28:24.785Z,0.25
2024-01-20T15:30:54.360Z,0.20
2024-01-20T15:33:24.671Z,0.19
2024-01-20T15:35:54.292Z,0.13
2024-01-20T15:38:23.669Z,0.05
2024-01-20T15:40:57.213Z,0.01
2024-01-20T15:43:26.684Z,-0.03
2024-01-20T15:45:56.217Z,-0.08
2024-01-20T15:48:25.831Z,-0.14
2024-01-20T15:50:55.513Z,-0.21
2024-01-20T15:53:24.987Z,-0.26
2024-01-20T15:55:54.886Z,-0.31
2024-01-20T15:58:24.333Z,-0.38
2024-01-20T16:00:53.983Z,-0.46
2024-01-20T16:03:23.543Z,-0.54
2024-01-20T16:05:52.999Z,-0.62
2024-01-20T16:08:22.445Z,-0.67
2024-01-20T16:10:52.462Z,-0.75
2024-01-20T16:13:21.903Z,-0.83
2024-01-20T16:15:51.398Z,-0.87
2024-01-20T16:18:21.151Z,-0.91
2024-01-20T16:20:50.749Z,-0.96
2024-01-20T16:23:21.339Z,-1.02
2024-01-20T16:25:52.915Z,-1.04
2024-01-20T16:28:22.285Z,-1.06
2024-01-20T16:30:54.299Z,-1.10
2024-01-20T16:33:25.785Z,-1.07
2024-01-20T16:35:55.509Z,-1.09
2024-01-20T16:38:25.091Z,-1.09
2024-01-20T16:40:55.498Z,-1.08
2024-01-20T16:43:25.006Z,-1.09
2024-01-20T16:45:54.482Z,-1.09
2024-01-20T16:48:24.259Z,-1.14
2024-01-20T16:50:54.155Z,-1.16
2024-01-20T16:53:23.647Z,-1.19
2024-01-20T16:55:53.089Z,-1.22
2024-01-20T16:58:23.456Z,-1.26
2024-01-20T17:00:53.850Z,-1.27
2024-01-20T17:03:24.305Z,-1.32
2024-01-20T17:05:54.564Z,-1.35
2024-01-20T17:08:24.756Z,-1.41
2024-01-20T17:10:54.291Z,-1.48
2024-01-20T17:13:23.762Z,-1.53
2024-01-20T17:15:54.183Z,-1.59
2024-01-20T17:18:23.732Z,-1.65
2024-01-20T17:20:53.382Z,-1.64
2024-01-20T17:23:23.014Z,-1.62
2024-01-20T17:25:53.470Z,-1.62
2024-01-20T17:28:23.029Z,-1.65
2024-01-20T17:30:52.803Z,-1.65
2024-01-20T17:33:22.501Z,-1.68
2024-01-20T17:35:54.278Z,-1.70
2024-01-20T17:38:24.572Z,-1.77
2024-01-20T17:40:54.195Z,-1.75
2024-01-20T17:43:23.618Z,-1.80
2024-01-20T17:45:53.112Z,-1.85
2024-01-20T17:48:22.693Z,-1.87
2024-01-20T17:50:53.272Z,-1.92
2024-01-20T17:53:22.684Z,-1.95
2024-01-20T17:55:52.219Z,-1.95
2024-01-20T17:58:22.311Z,-1.98
2024-01-20T18:00:52.177Z,-1.97
2024-01-20T18:03:21.773Z,-1.96
2024-01-20T18:05:51.520Z,-1.99
2024-01-20T18:08:21.051Z,-1.99
2024-01-20T18:10:51.984Z,-1.94
2024-01-20T18:13:21.442Z,-1.93
2024-01-20T18:15:50.982Z,-1.93
2024-01-20T18:18:20.729Z,-1.91
2024-01-20T18:20:50.728Z,-1.92
2024-01-20T18:23:20.198Z,-1.91
2024-01-20T18:25:49.632Z,-1.88
2024-01-20T18:28:19.237Z,-1.89
2024-01-20T18:30:48.938Z,-1.95
2024-01-20T18:33:19.027Z,-1.97
2024-01-20T18:35:48.520Z,-2.00
2024-01-20T18:38:17.894Z,-2.07
2024-01-20T18:40:47.513Z,-2.12
2024-01-20T18:43:17.028Z,-2.20
2024-01-20T18:45:46.471Z,-2.21
2024-01-20T18:48:16.044Z,-2.24
2024-01-20T18:50:45.711Z,-2.27
2024-01-20T18:53:15.564Z,-2.31
2024-01-20T18:55:45.593Z,-2.29
2024-01-20T18:58:15.052Z,-2.30
2024-01-20T19:00:44.761Z,-2.31
2024-01-20T19:03:14.808Z,-2.34
2024-01-20T19:05:45.254Z,-2.35
2024-01-20T19:08:14.672Z,-2.34
2024-01-20T19:10:44.638Z,-2.32
2024-01-20T19:13:14.399Z,-2.32
2024-01-20T19:15:47.360Z,-2.29
2024-01-20T19:18:17.062Z,-2.27
2024-01-20T19:20:47.612Z,-2.25
2024-01-20T19:23:18.197Z,-2.24
2024-01-20T19:25:47.712Z,-2.26
2024-01-20T19:28:17.201Z,-2.27
2024-01-20T19:30:46.875Z,-2.30
2024-01-20T19:33:16.438Z,-2.32
2024-01-20T19:35:45.922Z,-2.33
2024-01-20T19:38:15.380Z,-2.35
2024-01-20T19:40:44.892Z,-2.36
2024-01-20T19:43:14.648Z,-2.40
2024-01-20T19:45:44.211Z,-2.41
2024-01-20T19:48:14.522Z,-2.42
2024-01-20T19:50:44.819Z,-2.43
2024-01-20T19:53:14.282Z,-2.47
2024-01-20T19:55:43.695Z,-2.48
2024-01-20T19:58:14.177Z,-2.43
2024-01-20T20:00:46.380Z,-2.40
2024-01-20T20:03:19.259Z,-2.32
2024-01-20T20:05:48.864Z,-2.31
2024-01-20T20:08:24.030Z,-2.28
2024-01-20T20:10:54.280Z,-2.23
2024-01-20T20:13:28.018Z,-2.29
2024-01-20T20:16:03.036Z,-2.29
2024-01-20T20:18:34.435Z,-2.31
2024-01-20T20:21:04.192Z,-2.29
2024-01-20T20:23:33.676Z,-2.33
2024-01-20T20:26:03.935Z,-2.37
2024-01-20T20:28:33.360Z,-2.36
2024-01-20T20:31:07.217Z,-2.40
2024-01-20T20:33:39.581Z,-2.36
2024-01-20T20:36:09.146Z,-2.39
2024-01-20T20:38:38.577Z,-2.43
2024-01-20T20:41:08.037Z,-2.47
2024-01-20T20:43:37.475Z,-2.51
2024-01-20T20:46:07.038Z,-2.52
2024-01-20T20:48:36.506Z,-2.53
2024-01-20T20:51:06.203Z,-2.57
2024-01-20T20:53:35.695Z,-2.58
2024-01-20T20:56:05.409Z,-2.60
2024-01-20T20:58:34.851Z,-2.62
2024-01-20T21:01:04.818Z,-2.63
2024-01-20T21:03:37.585Z,-2.63
2024-01-20T21:06:07.308Z,-2.64
2024-01-20T21:08:36.789Z,-2.66
2024-01-20T21:11:08.062Z,-2.66
2024-01-20T21:13:37.720Z,-2.66
2024-01-20T21:16:07.311Z,-2.64
2024-01-20T21:18:36.952Z,-2.68
2024-01-20T21:21:07.510Z,-2.68
2024-01-20T21:23:37.065Z,-2.66
2024-01-20T21:26:06.810Z,-2.65
2024-01-20T21:28:36.243Z,-2.62
2024-01-20T21:31:08.179Z,-2.58
2024-01-20T21:33:39.576Z,-2.53
2024-01-20T21:36:11.420Z,-2.47
2024-01-20T21:38:42.704Z,-2.47
2024-01-20T21:41:12.214Z,-2.43
2024-01-20T21:43:41.666Z,-2.40
2024-01-20T21:46:11.190Z,-2.37
2024-01-20T21:48:41.181Z,-2.35
2024-01-20T21:51:10.949Z,-2.29
2024-01-20T21:53:40.532Z,-2.28
2024-01-20T21:56:09.982Z,-2.25
2024-01-20T21:58:39.401Z,-2.24
2024-01-20T22:01:09.466Z,-2.24
2024-01-20T22:03:39.078Z,-2.22
2024-01-20T22:06:08.581Z,-2.20
2024-01-20T22:08:38.122Z,-2.19
2024-01-20T22:11:08.407Z,-2.17
2024-01-20T22:13:38.072Z,-2.19
2024-01-20T22:16:07.903Z,-2.18
2024-01-20T22:18:37.433Z,-2.16
2024-01-20T22:21:12.594Z,-2.12
2024-01-20T22:23:43.831Z,-2.06
2024-01-20T22:26:20.260Z,-2.04
2024-01-20T22:28:50.570Z,-2.02
2024-01-20T22:31:20.312Z,-2.02
2024-01-20T22:33:49.816Z,-2.05
2024-01-20T22:36:19.499Z,-2.01
2024-01-20T22:38:49.040Z,-1.99
2024-01-20T22:41:19.617Z,-1.97
2024-01-20T22:43:49.141Z,-2.00
2024-01-20T22:46:19.316Z,-1.97
2024-01-20T22:48:49.088Z,-1.94
2024-01-20T22:51:24.046Z,-1.94
2024-01-20T22:53:53.660Z,-1.88
2024-01-20T22:56:23.789Z,-1.93
2024-01-20T22:58:53.400Z,-1.93
2024-01-20T23:01:22.990Z,-1.92
2024-01-20T23:03:52.509Z,-1.89
2024-01-20T23:06:22.027Z,-1.89
2024-01-20T23:08:52.538Z,-1.89
2024-01-20T23:11:22.350Z,-1.86
2024-01-20T23:13:51.884Z,-1.83
2024-01-20T23:16:21.313Z,-1.84
2024-01-20T23:18:50.829Z,-1.85
2024-01-20T23:21:20.438Z,-1.84
2024-01-20T23:23:49.954Z,-1.83
2024-01-20T23:26:19.438Z,-1.84
2024-01-20T23:28:48.879Z,-1.84
2024-01-20T23:31:18.711Z,-1.85
2024-01-20T23:33:48.262Z,-1.84
2024-01-20T23:36:17.776Z,-1.84
2024-01-20T23:38:47.293Z,-1.83
2024-01-20T23:41:16.748Z,-1.82
2024-01-20T23:43:46.227Z,-1.83
2024-01-20T23:46:16.499Z,-1.84
2024-01-20T23:48:46.012Z,-1.85
2024-01-20T23:51:15.809Z,-1.85
2024-01-20T23:53:45.392Z,-1.86
2024-01-20T23:56:14.863Z,-1.87
2024-01-20T23:58:44.319Z,-1.86
